WetterOnline ( http://www.wetteronline.de )

Wetter aktuell Hohenpeißenberg

Aktuelles Wetter: Hohenpeißenberg (986m)

6-stündlich | Neueste Meldungen
Ortszeit Temperatur Wetter
Do, 21.03. 19:00 5.3° C wolkig
Do, 21.03. 13:00 6.2° C wolkenlos
Do, 21.03. 7:00 -1.2° C wolkenlos
Do, 21.03. 1:00 0.6° C wolkenlos
Mi, 20.03. 19:00 1.8° C wolkenlos
Mi, 20.03. 13:00 3.6° C wolkenlos
Mi, 20.03. 7:00 -1.9° C wolkenlos
Mi, 20.03. 1:00 -0.3° C wolkenlos
Ortszeit Temperatur Wetter
Do, 21.03. 20:10 4.5° C leicht bewölkt
Do, 21.03. 20:00 4.9° C wolkenlos
Do, 21.03. 19:50 4.9° C wolkenlos
Do, 21.03. 19:40 5.0° C wolkenlos
Do, 21.03. 19:30 5.0° C leicht bewölkt
Do, 21.03. 19:20 5.0° C leicht bewölkt
Do, 21.03. 19:00 5.3° C wolkig
Do, 21.03. 18:30 5.9° C wolkig
Do, 21.03. 18:00 6.5° C leicht bewölkt
Do, 21.03. 17:30 7.2° C wolkig
Do, 21.03. 17:00 7.7° C leicht bewölkt
Ortszeit Relative Feuchte Sichtweite
Do, 21.03. 19:00 56% 45 km
Do, 21.03. 13:00 46% 50 km
Do, 21.03. 7:00 72% 40 km
Do, 21.03. 1:00 67% 40 km
Mi, 20.03. 19:00 59% 40 km
Mi, 20.03. 13:00 50% 45 km
Mi, 20.03. 7:00 82% 30 km
Mi, 20.03. 1:00 77% 40 km
Ortszeit Relative Feuchte Sichtweite
Do, 21.03. 20:10 60% -
Do, 21.03. 20:00 60% 35 km
Do, 21.03. 19:50 60% -
Do, 21.03. 19:40 60% -
Do, 21.03. 19:30 59% 40 km
Do, 21.03. 19:20 59% -
Do, 21.03. 19:00 56% 45 km
Do, 21.03. 18:30 54% 45 km
Do, 21.03. 18:00 50% 45 km
Do, 21.03. 17:30 47% 55 km
Do, 21.03. 17:00 45% 50 km
Ortszeit Niederschlagsmenge Niederschlagsart
Do, 21.03. 19:00 0.0 l/m2 in 12 Std. -
Do, 21.03. 13:00 0.0 l/m2 in 6 Std. -
Do, 21.03. 7:00 0.0 l/m2 in 12 Std. -
Do, 21.03. 1:00 0.0 l/m2 in 6 Std. -
Mi, 20.03. 19:00 0.0 l/m2 in 12 Std. -
Mi, 20.03. 13:00 0.0 l/m2 in 6 Std. -
Mi, 20.03. 7:00 0.0 l/m2 in 12 Std. -
Mi, 20.03. 1:00 0.0 l/m2 in 6 Std. -
Ortszeit Niederschlagsmenge Niederschlagsart
Do, 21.03. 20:10 keine Meldung -
Do, 21.03. 20:00 0.0 l/m2 in 1 Std. -
Do, 21.03. 19:50 keine Meldung -
Do, 21.03. 19:40 keine Meldung -
Do, 21.03. 19:30 0.0 l/m2 in 1 Std. -
Do, 21.03. 19:20 keine Meldung -
Do, 21.03. 19:00 0.0 l/m2 in 1 Std. -
Do, 21.03. 18:30 0.0 l/m2 in 1 Std. -
Do, 21.03. 18:00 0.0 l/m2 in 1 Std. -
Do, 21.03. 17:30 0.0 l/m2 in 1 Std. -
Do, 21.03. 17:00 0.0 l/m2 in 1 Std. -
Ortszeit Stärke Spitze Richtung
km/h Bft. km/h Grad Sektor
Do, 21.03. 19:00 17 3 31 50° NO
Do, 21.03. 13:00 15 3 31 60° NO
Do, 21.03. 7:00 14 3 29 80° O
Do, 21.03. 1:00 11 2 29 110° O
Mi, 20.03. 19:00 15 3 26 50° NO
Mi, 20.03. 13:00 13 3 28 40° NO
Mi, 20.03. 7:00 9 2 11 40° NO
Mi, 20.03. 1:00 7 2 11 10° N
Ortszeit Stärke Spitze Richtung
km/h Bft. km/h Grad Sektor
Do, 21.03. 20:10 20 4 - 60° NO
Do, 21.03. 20:00 20 4 30 60° NO
Do, 21.03. 19:50 20 4 - 60° NO
Do, 21.03. 19:40 18 3 - 60° NO
Do, 21.03. 19:30 17 3 26 60° NO
Do, 21.03. 19:20 17 3 - 60° NO
Do, 21.03. 19:00 17 3 24 50° NO
Do, 21.03. 18:30 15 3 22 50° NO
Do, 21.03. 18:00 15 3 24 50° NO
Do, 21.03. 17:30 13 3 24 50° NO
Do, 21.03. 17:00 11 2 32 40° NO
Ortszeit Untergrenze Bedeckung Gattung
total tief tief mittel hoch
Do, 21.03. 19:00 10500 m 8/8 0/8 - - -
Do, 21.03. 13:00 8400 m 0/8 0/8 - - -
Do, 21.03. 7:00 - 0/8 0/8 - - -
Do, 21.03. 1:00 - 0/8 0/8 - - -
Mi, 20.03. 19:00 - 0/8 0/8 - - -
Mi, 20.03. 13:00 1170 m 0/8 0/8 - - -
Mi, 20.03. 7:00 - 0/8 0/8 - - -
Mi, 20.03. 1:00 - 0/8 0/8 - - -
Ortszeit Bedeckungsgrad in Achtel und Wolkenuntergrenze
Do, 21.03. 20:10 4(10500m)
Do, 21.03. 20:00 keine Wolken
Do, 21.03. 19:50 keine Wolken
Do, 21.03. 19:40 keine Wolken
Do, 21.03. 19:30 5(10500m)
Do, 21.03. 19:20 5(10500m)
Do, 21.03. 19:00 8(10500m)
Do, 21.03. 18:30 8(10500m)
Do, 21.03. 18:00 7(9000m) 8(10500m)
Do, 21.03. 17:30 2(9000m) 8(9000m) 8(10500m)
Do, 21.03. 17:00 8(10500m)
Ortszeit Stationsdruck (hPa) Tendenz (hPa in 3 Std.)
Do, 21.03. 19:00 916 + 0,4
Do, 21.03. 13:00 916 - 0,1
Do, 21.03. 7:00 915 - 0,5
Do, 21.03. 1:00 917 - 0,6
Mi, 20.03. 19:00 917 + 0,5
Mi, 20.03. 13:00 917 + 0,5
Mi, 20.03. 7:00 916 + 0,8
Mi, 20.03. 1:00 915 + 0,9
Ortszeit Stationsdruck (hPa) Tendenz (hPa in 3 Std.)
Do, 21.03. 20:10 916 keine Meldung
Do, 21.03. 20:00 916 + 0,7
Do, 21.03. 19:50 916 keine Meldung
Do, 21.03. 19:40 916 keine Meldung
Do, 21.03. 19:30 916 + 0,7
Do, 21.03. 19:20 916 keine Meldung
Do, 21.03. 19:00 916 + 0,4
Do, 21.03. 18:30 915 0,0
Do, 21.03. 18:00 915 - 0,1
Do, 21.03. 17:30 915 - 0,2
Do, 21.03. 17:00 915 - 0,6
Ortszeit Schneehöhe (cm)
Do, 21.03. 19:00 0
Do, 21.03. 13:00 0
Do, 21.03. 7:00 2
Do, 21.03. 1:00 0
Mi, 20.03. 19:00 0
Mi, 20.03. 13:00 0
Mi, 20.03. 7:00 0
Mi, 20.03. 1:00 0
Ortszeit Schneehöhe (cm)
Do, 21.03. 20:10 0
Do, 21.03. 20:00 0
Do, 21.03. 19:50 0
Do, 21.03. 19:40 0
Do, 21.03. 19:30 0
Do, 21.03. 19:20 0
Do, 21.03. 19:00 0
Do, 21.03. 18:30 0
Do, 21.03. 18:00 0
Do, 21.03. 17:30 0
Do, 21.03. 17:00 0
Link zu dieser Seite / Seite empfehlen

Das Wetter in ...